createdAt,value
2018-12-29T00:00:59.232Z,124.20
2018-12-29T00:03:33.249Z,127.77
2018-12-29T00:06:08.071Z,144.23
2018-12-29T00:08:54.460Z,164.00
2018-12-29T00:11:34.539Z,175.13
2018-12-29T00:14:23.625Z,155.23
2018-12-29T00:17:00.578Z,132.93
2018-12-29T00:19:45.225Z,788.97
2018-12-29T00:22:48.091Z,759.23
2018-12-29T00:25:38.717Z,379.37
2018-12-29T00:28:18.733Z,424.23
2018-12-29T00:31:12.470Z,532.37
2018-12-29T00:34:18.729Z,698.77
2018-12-29T00:37:06.576Z,916.07
2018-12-29T00:39:48.742Z,1605.70
2018-12-29T00:42:28.456Z,356.73
2018-12-29T00:45:03.067Z,485.37
2018-12-29T00:47:43.476Z,895.33
2018-12-29T00:50:16.712Z,995.07
2018-12-29T00:53:05.184Z,876.73
2018-12-29T00:55:35.211Z,1260.40
2018-12-29T00:58:11.460Z,692.80
2018-12-29T01:00:57.847Z,656.67
2018-12-29T01:03:33.470Z,431.13
2018-12-29T01:06:25.168Z,228.07
2018-12-29T01:09:02.787Z,267.67
2018-12-29T01:11:43.513Z,818.13
2018-12-29T01:14:29.992Z,122.20
2018-12-29T01:17:11.594Z,708.37
2018-12-29T01:19:59.256Z,116.03
2018-12-29T01:22:40.095Z,1021.20
2018-12-29T01:25:14.023Z,128.27
2018-12-29T01:28:03.642Z,160.37
2018-12-29T01:30:45.211Z,102.70
2018-12-29T01:33:22.576Z,236.90
2018-12-29T01:36:11.577Z,122.90
2018-12-29T01:38:49.327Z,151.97
2018-12-29T01:41:28.175Z,131.63
2018-12-29T01:44:11.513Z,127.00
2018-12-29T01:46:52.269Z,120.63
2018-12-29T01:49:29.223Z,134.80
2018-12-29T01:52:05.110Z,138.40
2018-12-29T01:54:51.831Z,131.70
2018-12-29T01:57:37.030Z,126.03
2018-12-29T02:00:20.111Z,134.37
2018-12-29T02:02:59.511Z,154.33
2018-12-29T02:05:41.595Z,139.30
2018-12-29T02:08:21.862Z,127.73
2018-12-29T02:10:57.290Z,153.40
2018-12-29T02:13:34.496Z,173.70
2018-12-29T02:16:16.454Z,182.03
2018-12-29T02:18:52.749Z,298.03
2018-12-29T02:21:34.471Z,412.93
2018-12-29T02:24:15.345Z,946.73
2018-12-29T02:26:52.421Z,295.57
2018-12-29T02:29:38.571Z,536.20
2018-12-29T02:32:19.385Z,152.50
2018-12-29T02:34:56.911Z,407.30
2018-12-29T02:37:45.293Z,146.27
2018-12-29T02:40:22.432Z,602.50
2018-12-29T02:42:59.145Z,164.63
2018-12-29T02:45:50.006Z,348.10
2018-12-29T02:48:38.119Z,539.97
2018-12-29T02:51:10.207Z,1014.93
2018-12-29T02:54:00.410Z,724.93
2018-12-29T02:56:46.333Z,1150.77
2018-12-29T02:59:17.709Z,816.70
2018-12-29T03:02:04.786Z,1206.07
2018-12-29T03:04:49.603Z,694.40
2018-12-29T03:07:38.194Z,822.40
2018-12-29T03:10:22.655Z,1016.23
2018-12-29T03:12:58.683Z,1087.80
2018-12-29T03:15:42.033Z,678.07
2018-12-29T03:18:29.472Z,888.43
2018-12-29T03:21:09.464Z,987.27
2018-12-29T03:23:56.127Z,648.80
2018-12-29T03:26:38.174Z,393.80
2018-12-29T03:29:19.834Z,794.33
2018-12-29T03:32:06.203Z,870.67
2018-12-29T03:34:49.527Z,1136.73
2018-12-29T03:37:26.361Z,1004.97
2018-12-29T03:40:14.907Z,741.33
2018-12-29T03:42:53.381Z,856.60
2018-12-29T03:45:35.875Z,1083.43
2018-12-29T03:48:28.042Z,854.07
2018-12-29T03:51:05.830Z,1288.60
2018-12-29T03:53:46.182Z,1240.70
2018-12-29T03:56:34.441Z,1173.33
2018-12-29T03:59:10.125Z,1285.67
2018-12-29T04:01:56.026Z,658.87
2018-12-29T04:04:39.118Z,982.43
2018-12-29T04:07:10.007Z,522.10
2018-12-29T04:09:59.762Z,562.97
2018-12-29T04:12:39.013Z,588.27
2018-12-29T04:15:15.093Z,585.93
2018-12-29T04:18:03.408Z,1145.20
2018-12-29T04:20:39.155Z,667.30
2018-12-29T04:23:19.223Z,1246.47
2018-12-29T04:25:59.785Z,1115.57
2018-12-29T04:28:41.332Z,670.97
2018-12-29T04:31:11.725Z,1105.90
2018-12-29T04:34:02.189Z,724.37
2018-12-29T04:36:48.524Z,823.07
2018-12-29T04:39:18.943Z,1099.93
2018-12-29T04:42:04.150Z,1167.50
2018-12-29T04:44:43.102Z,689.80
2018-12-29T04:47:24.700Z,810.93
2018-12-29T04:50:15.322Z,450.73
2018-12-29T04:52:53.727Z,601.00
2018-12-29T04:55:43.609Z,326.77
2018-12-29T04:58:27.305Z,519.53
2018-12-29T05:01:00.481Z,389.73
2018-12-29T05:03:39.681Z,1068.03
2018-12-29T05:06:12.785Z,405.97
2018-12-29T05:08:46.952Z,452.60
2018-12-29T05:11:20.406Z,548.30
2018-12-29T05:14:01.565Z,543.03
2018-12-29T05:16:45.481Z,439.77
2018-12-29T05:19:17.085Z,552.27
2018-12-29T05:21:53.869Z,570.10
2018-12-29T05:24:32.575Z,640.17
2018-12-29T05:27:07.179Z,507.20
2018-12-29T05:29:58.111Z,906.87
2018-12-29T05:32:40.614Z,1115.13
2018-12-29T05:35:31.403Z,413.30
2018-12-29T05:38:12.885Z,761.07
2018-12-29T05:40:49.533Z,933.10
2018-12-29T05:43:29.722Z,750.10
2018-12-29T05:46:20.348Z,669.67
2018-12-29T05:48:52.365Z,1129.97
2018-12-29T05:51:22.334Z,1491.33
2018-12-29T05:54:07.980Z,1180.73
2018-12-29T05:56:49.090Z,1185.63
2018-12-29T05:59:20.163Z,875.63
2018-12-29T06:02:08.820Z,667.67
2018-12-29T06:04:51.057Z,1080.13
2018-12-29T06:07:23.132Z,1230.50
2018-12-29T06:10:10.155Z,956.07
2018-12-29T06:12:51.463Z,183.57
2018-12-29T06:15:23.284Z,707.27
2018-12-29T06:18:08.865Z,1030.60
2018-12-29T06:20:50.344Z,442.93
2018-12-29T06:23:20.202Z,818.80
2018-12-29T06:26:07.023Z,1837.20
2018-12-29T06:28:56.019Z,1550.70
2018-12-29T06:31:28.868Z,1124.93
2018-12-29T06:34:09.483Z,1397.87
2018-12-29T06:36:49.735Z,1429.33
2018-12-29T06:39:23.393Z,964.50
2018-12-29T06:41:59.786Z,723.03
2018-12-29T06:44:39.864Z,1307.67
2018-12-29T06:47:14.252Z,540.43
2018-12-29T06:50:02.461Z,1044.43
2018-12-29T06:52:53.839Z,1160.67
2018-12-29T06:55:21.376Z,946.73
2018-12-29T06:57:57.974Z,1211.53
2018-12-29T07:00:38.760Z,1172.97
2018-12-29T07:03:09.654Z,1210.50
2018-12-29T07:05:53.271Z,904.13
2018-12-29T07:08:37.076Z,1033.67
2018-12-29T07:11:07.537Z,638.73
2018-12-29T07:13:54.730Z,507.57
2018-12-29T07:16:30.729Z,1029.60
2018-12-29T07:19:08.252Z,1269.47
2018-12-29T07:21:57.940Z,1686.07
2018-12-29T07:24:34.281Z,1420.80
2018-12-29T07:27:09.570Z,1582.83
2018-12-29T07:29:53.934Z,1708.80
2018-12-29T07:32:29.400Z,1856.73
2018-12-29T07:35:01.262Z,820.10
2018-12-29T07:37:36.758Z,1219.10
2018-12-29T07:40:17.203Z,1551.33
2018-12-29T07:42:52.717Z,1216.60
2018-12-29T07:45:38.812Z,1032.93
2018-12-29T07:48:24.916Z,657.57
2018-12-29T07:50:55.629Z,926.17
2018-12-29T07:53:35.762Z,855.70
2018-12-29T07:56:13.820Z,703.90
2018-12-29T07:58:50.697Z,328.00
2018-12-29T08:01:23.718Z,909.70
2018-12-29T08:04:00.312Z,901.80
2018-12-29T08:06:36.482Z,1633.50
2018-12-29T08:09:17.753Z,1814.97
2018-12-29T08:12:10.716Z,1148.20
2018-12-29T08:14:43.475Z,1457.53
2018-12-29T08:17:25.159Z,1176.47
2018-12-29T08:20:12.187Z,860.47
2018-12-29T08:22:50.481Z,1416.57
2018-12-29T08:25:30.871Z,473.13
2018-12-29T08:28:14.652Z,1362.23
2018-12-29T08:30:55.701Z,1039.47
2018-12-29T08:33:38.213Z,1270.70
2018-12-29T08:36:20.935Z,1051.43
2018-12-29T08:39:05.174Z,1718.83
2018-12-29T08:41:50.466Z,1132.33
2018-12-29T08:44:39.243Z,1047.37
2018-12-29T08:47:21.912Z,513.80
2018-12-29T08:50:00.174Z,362.97
2018-12-29T08:52:37.688Z,475.80
2018-12-29T08:55:18.028Z,579.23
2018-12-29T08:57:54.336Z,616.17
2018-12-29T09:00:40.188Z,1924.93
2018-12-29T09:03:22.693Z,1413.60
2018-12-29T09:06:05.641Z,1126.83
2018-12-29T09:08:52.467Z,1123.30
2018-12-29T09:11:36.747Z,1166.73
2018-12-29T09:14:06.775Z,910.40
2018-12-29T09:16:49.136Z,754.03
2018-12-29T09:19:35.263Z,960.33
2018-12-29T09:22:09.483Z,1252.50
2018-12-29T09:24:43.266Z,507.23
2018-12-29T09:27:32.212Z,588.90
2018-12-29T09:30:15.986Z,594.53
2018-12-29T09:33:06.265Z,525.93
2018-12-29T09:35:57.684Z,635.08
2018-12-29T09:38:33.719Z,671.47
2018-12-29T09:41:13.769Z,594.27
2018-12-29T09:43:49.451Z,509.97
2018-12-29T09:46:25.802Z,322.90
2018-12-29T09:49:12.292Z,666.10
2018-12-29T09:51:48.310Z,114.03
2018-12-29T09:54:26.040Z,171.23
2018-12-29T09:57:03.960Z,432.10
2018-12-29T09:59:40.934Z,465.43
2018-12-29T10:02:23.136Z,184.00
2018-12-29T10:05:04.297Z,538.23
2018-12-29T10:07:40.678Z,223.40
2018-12-29T10:10:17.247Z,292.87
2018-12-29T10:13:03.971Z,962.47
2018-12-29T10:15:36.383Z,98.37
2018-12-29T10:18:18.575Z,186.80
2018-12-29T10:21:00.509Z,406.37
2018-12-29T10:23:32.692Z,321.63
2018-12-29T10:26:12.651Z,516.57
2018-12-29T10:28:46.960Z,227.97
2018-12-29T10:31:16.915Z,265.67
2018-12-29T10:33:46.729Z,369.53
2018-12-29T10:36:17.049Z,351.90
2018-12-29T10:38:47.525Z,78.37
2018-12-29T10:41:17.342Z,431.10
2018-12-29T10:43:47.472Z,880.97
2018-12-29T10:46:17.582Z,416.30
2018-12-29T10:48:47.604Z,759.87
2018-12-29T10:51:17.985Z,855.43
2018-12-29T10:53:48.252Z,697.00
2018-12-29T10:56:18.043Z,97.83
2018-12-29T10:58:47.871Z,77.90
2018-12-29T11:01:19.425Z,73.90
2018-12-29T11:03:52.019Z,320.07
2018-12-29T11:06:22.124Z,335.00
2018-12-29T11:08:52.367Z,67.00
2018-12-29T11:11:22.256Z,444.63
2018-12-29T11:13:52.285Z,614.40
2018-12-29T11:16:27.048Z,587.73
2018-12-29T11:18:57.606Z,417.73
2018-12-29T11:21:28.640Z,173.13
2018-12-29T11:23:58.731Z,448.63
2018-12-29T11:26:28.642Z,102.53
2018-12-29T11:28:58.631Z,479.97
2018-12-29T11:31:32.736Z,564.37
2018-12-29T11:34:03.121Z,194.47
2018-12-29T11:36:34.314Z,1034.80
2018-12-29T11:39:07.958Z,788.03
2018-12-29T11:41:39.363Z,179.43
2018-12-29T11:44:09.482Z,212.50
2018-12-29T11:46:42.405Z,47.80
2018-12-29T11:49:18.119Z,162.83
2018-12-29T11:51:50.821Z,40.50
2018-12-29T11:54:21.450Z,37.87
2018-12-29T11:56:55.473Z,39.03
2018-12-29T11:59:25.853Z,48.90
2018-12-29T12:01:55.803Z,66.83
2018-12-29T12:04:28.674Z,66.70
2018-12-29T12:07:05.741Z,202.50
2018-12-29T12:09:38.459Z,72.67
2018-12-29T12:12:14.142Z,39.63
2018-12-29T12:14:45.546Z,53.73
2018-12-29T12:17:20.994Z,39.43
2018-12-29T12:19:51.329Z,42.33
2018-12-29T12:22:21.356Z,83.07
2018-12-29T12:24:51.553Z,37.77
2018-12-29T12:27:24.401Z,45.87
2018-12-29T12:29:56.719Z,96.07
2018-12-29T12:32:29.835Z,51.20
2018-12-29T12:35:00.234Z,33.33
2018-12-29T12:37:30.145Z,40.00
2018-12-29T12:40:00.482Z,47.70
2018-12-29T12:42:31.862Z,48.37
2018-12-29T12:45:02.561Z,38.27
2018-12-29T12:47:36.737Z,32.17
2018-12-29T12:50:07.159Z,37.83
2018-12-29T12:52:39.310Z,41.57
2018-12-29T12:55:11.521Z,34.23
2018-12-29T12:57:41.549Z,37.93
2018-12-29T13:00:14.097Z,34.10
2018-12-29T13:02:47.437Z,32.00
2018-12-29T13:05:18.798Z,38.80
2018-12-29T13:07:50.556Z,34.67
2018-12-29T13:10:37.228Z,36.23
2018-12-29T13:13:09.733Z,34.60
2018-12-29T13:15:39.549Z,28.73
2018-12-29T13:18:13.169Z,31.07
2018-12-29T13:20:42.655Z,32.37
2018-12-29T13:23:12.685Z,32.40
2018-12-29T13:25:42.465Z,31.10
2018-12-29T13:28:12.531Z,34.00
2018-12-29T13:30:42.329Z,30.90
2018-12-29T13:33:12.354Z,29.10
2018-12-29T13:35:42.751Z,33.17
2018-12-29T13:38:14.439Z,34.73
2018-12-29T13:40:46.517Z,36.10
2018-12-29T13:43:17.721Z,38.33
2018-12-29T13:45:48.922Z,39.83
2018-12-29T13:48:23.256Z,36.23
2018-12-29T13:50:53.822Z,33.73
2018-12-29T13:53:24.415Z,38.20
2018-12-29T13:55:57.745Z,32.97
2018-12-29T13:58:28.140Z,33.83
2018-12-29T14:00:59.111Z,32.03
2018-12-29T14:03:31.134Z,30.40
2018-12-29T14:06:01.839Z,31.53
2018-12-29T14:08:35.113Z,30.27
2018-12-29T14:11:07.476Z,41.27
2018-12-29T14:13:37.671Z,51.17
2018-12-29T14:16:08.032Z,40.10
2018-12-29T14:18:38.458Z,43.37
2018-12-29T14:21:13.483Z,39.63
2018-12-29T14:23:46.326Z,40.53
2018-12-29T14:26:16.620Z,35.87
2018-12-29T14:28:48.940Z,38.77
2018-12-29T14:31:19.545Z,38.13
2018-12-29T14:33:52.600Z,38.20
2018-12-29T14:36:22.713Z,34.23
2018-12-29T14:38:53.039Z,39.73
2018-12-29T14:41:28.428Z,37.40
2018-12-29T14:44:01.174Z,44.57
2018-12-29T14:46:34.721Z,38.30
2018-12-29T14:49:05.263Z,45.00
2018-12-29T14:51:36.651Z,40.73
2018-12-29T14:54:08.618Z,117.70
2018-12-29T14:56:44.543Z,175.93
2018-12-29T14:59:19.869Z,88.40
2018-12-29T15:01:49.722Z,126.67
2018-12-29T15:04:28.996Z,83.73
2018-12-29T15:07:06.210Z,375.57
2018-12-29T15:09:38.520Z,112.87
2018-12-29T15:12:17.505Z,167.90
2018-12-29T15:14:47.060Z,49.83
2018-12-29T15:17:23.087Z,411.53
2018-12-29T15:19:55.214Z,168.23
2018-12-29T15:22:25.777Z,138.37
2018-12-29T15:24:55.799Z,334.53
2018-12-29T15:27:27.526Z,65.63
2018-12-29T15:30:03.357Z,298.23
2018-12-29T15:32:34.820Z,55.60
2018-12-29T15:35:06.523Z,117.10
2018-12-29T15:37:39.979Z,95.40
2018-12-29T15:40:14.104Z,130.67
2018-12-29T15:42:49.268Z,48.80
2018-12-29T15:45:19.638Z,77.30
2018-12-29T15:48:01.948Z,50.93
2018-12-29T15:50:37.319Z,191.93
2018-12-29T15:53:08.237Z,104.47
2018-12-29T15:55:38.119Z,53.40
2018-12-29T15:58:08.466Z,60.90
2018-12-29T16:00:39.044Z,226.53
2018-12-29T16:03:15.676Z,326.37
2018-12-29T16:05:47.360Z,97.37
2018-12-29T16:08:19.223Z,61.20
2018-12-29T16:10:56.528Z,69.83
2018-12-29T16:13:26.739Z,287.90
2018-12-29T16:15:56.866Z,255.53
2018-12-29T16:18:27.255Z,400.43
2018-12-29T16:20:57.292Z,549.97
2018-12-29T16:23:27.484Z,846.57
2018-12-29T16:25:58.857Z,662.43
2018-12-29T16:28:28.869Z,965.07
2018-12-29T16:30:58.876Z,1155.37
2018-12-29T16:33:33.312Z,1373.23
2018-12-29T16:36:04.611Z,787.63
2018-12-29T16:38:39.974Z,401.67
2018-12-29T16:41:11.301Z,498.77
2018-12-29T16:43:41.805Z,305.53
2018-12-29T16:46:12.465Z,500.07
2018-12-29T16:48:47.751Z,397.30
2018-12-29T16:51:18.676Z,1166.73
2018-12-29T16:53:50.327Z,991.53
2018-12-29T16:56:20.673Z,441.70
2018-12-29T16:58:51.514Z,154.70
2018-12-29T17:01:22.584Z,698.17
2018-12-29T17:03:56.752Z,736.60
2018-12-29T17:06:29.060Z,418.03
2018-12-29T17:09:08.221Z,314.43
2018-12-29T17:11:44.044Z,387.20
2018-12-29T17:14:15.256Z,440.83
2018-12-29T17:16:49.546Z,1068.00
2018-12-29T17:19:22.683Z,778.17
2018-12-29T17:21:54.492Z,504.20
2018-12-29T17:24:32.717Z,640.13
2018-12-29T17:27:11.923Z,384.67
2018-12-29T17:29:51.314Z,623.70
2018-12-29T17:32:26.994Z,489.10
2018-12-29T17:34:59.230Z,565.93
2018-12-29T17:37:32.487Z,930.90
2018-12-29T17:40:05.039Z,908.40
2018-12-29T17:42:40.273Z,262.27
2018-12-29T17:45:11.916Z,1168.67
2018-12-29T17:47:44.357Z,798.57
2018-12-29T17:50:24.587Z,375.03
2018-12-29T17:52:56.138Z,655.87
2018-12-29T17:55:26.553Z,246.63
2018-12-29T17:57:57.360Z,827.57
2018-12-29T18:00:30.215Z,1001.17
2018-12-29T18:03:09.059Z,525.17
2018-12-29T18:05:44.233Z,1242.07
2018-12-29T18:08:14.355Z,720.77
2018-12-29T18:10:47.130Z,685.63
2018-12-29T18:13:17.540Z,380.60
2018-12-29T18:15:48.066Z,1162.40
2018-12-29T18:18:19.216Z,240.53
2018-12-29T18:20:49.335Z,598.40
2018-12-29T18:23:19.104Z,403.93
2018-12-29T18:25:51.019Z,903.17
2018-12-29T18:28:22.590Z,713.83
2018-12-29T18:30:52.787Z,912.47
2018-12-29T18:33:23.318Z,583.77
2018-12-29T18:35:54.473Z,1019.20
2018-12-29T18:38:24.537Z,778.50
2018-12-29T18:40:55.115Z,1079.87
2018-12-29T18:43:25.682Z,1064.27
2018-12-29T18:45:57.699Z,641.47
2018-12-29T18:48:28.408Z,682.60
2018-12-29T18:50:59.388Z,1018.80
2018-12-29T18:53:29.390Z,753.97
2018-12-29T18:55:59.453Z,1112.27
2018-12-29T18:58:29.240Z,1224.77
2018-12-29T19:01:19.637Z,417.33
2018-12-29T19:03:49.543Z,871.10
2018-12-29T19:06:19.532Z,581.50
2018-12-29T19:08:49.707Z,681.10
2018-12-29T19:11:19.615Z,675.83
2018-12-29T19:13:49.585Z,557.77
2018-12-29T19:16:19.754Z,793.97
2018-12-29T19:18:51.132Z,991.17
2018-12-29T19:21:23.732Z,714.43
2018-12-29T19:23:55.683Z,999.97
2018-12-29T19:26:27.392Z,676.83
2018-12-29T19:28:58.685Z,1272.70
2018-12-29T19:31:30.070Z,587.40
2018-12-29T19:34:01.482Z,795.93
2018-12-29T19:36:32.970Z,627.10
2018-12-29T19:39:05.623Z,424.40
2018-12-29T19:41:46.317Z,784.27
2018-12-29T19:44:16.233Z,846.13
2018-12-29T19:46:54.240Z,812.20
2018-12-29T19:49:26.599Z,1064.30
2018-12-29T19:52:06.370Z,987.57
2018-12-29T19:54:40.113Z,1129.73
2018-12-29T19:57:13.395Z,1303.57
2018-12-29T19:59:47.272Z,875.90
2018-12-29T20:02:18.753Z,953.80
2018-12-29T20:04:53.524Z,935.60
2018-12-29T20:07:31.607Z,1312.13
2018-12-29T20:10:03.781Z,956.93
2018-12-29T20:12:42.581Z,837.67
2018-12-29T20:15:19.486Z,665.40
2018-12-29T20:17:54.397Z,1044.97
2018-12-29T20:20:27.723Z,1022.20
2018-12-29T20:23:02.987Z,675.13
2018-12-29T20:25:35.485Z,611.13
2018-12-29T20:28:06.751Z,641.77
2018-12-29T20:30:39.507Z,715.80
2018-12-29T20:33:12.311Z,626.57
2018-12-29T20:35:43.912Z,752.93
2018-12-29T20:38:14.887Z,526.97
2018-12-29T20:40:46.698Z,1269.23
2018-12-29T20:43:17.857Z,602.23
2018-12-29T20:45:49.923Z,802.70
2018-12-29T20:48:21.092Z,654.10
2018-12-29T20:50:51.526Z,858.97
2018-12-29T20:53:23.810Z,999.77
2018-12-29T20:55:54.372Z,1318.27
2018-12-29T20:58:25.702Z,1032.73
2018-12-29T21:00:57.704Z,1231.37
2018-12-29T21:03:31.061Z,799.17
2018-12-29T21:06:01.851Z,803.63
2018-12-29T21:08:34.395Z,1216.73
2018-12-29T21:11:05.708Z,899.13
2018-12-29T21:13:38.778Z,794.93
2018-12-29T21:16:10.433Z,1335.60
2018-12-29T21:18:41.569Z,1645.30
2018-12-29T21:21:13.573Z,1735.03
2018-12-29T21:23:46.162Z,948.63
2018-12-29T21:26:18.296Z,753.60
2018-12-29T21:28:50.387Z,577.87
2018-12-29T21:31:21.691Z,1035.93
2018-12-29T21:33:56.470Z,1100.07
2018-12-29T21:36:27.973Z,1483.33
2018-12-29T21:39:02.292Z,1518.37
2018-12-29T21:41:34.565Z,726.27
2018-12-29T21:44:04.835Z,511.40
2018-12-29T21:46:35.529Z,481.20
2018-12-29T21:49:05.694Z,633.27
2018-12-29T21:51:41.901Z,622.80
2018-12-29T21:54:13.198Z,1029.90
2018-12-29T21:56:47.110Z,599.93
2018-12-29T21:59:18.562Z,555.10
2018-12-29T22:01:48.529Z,754.77
2018-12-29T22:04:19.548Z,1086.47
2018-12-29T22:07:07.584Z,975.30
2018-12-29T22:09:48.017Z,915.77
2018-12-29T22:12:36.959Z,855.30
2018-12-29T22:15:05.009Z,529.37
2018-12-29T22:20:18.655Z,919.53
2018-12-29T22:22:51.808Z,1003.17
2018-12-29T22:25:32.293Z,812.73
2018-12-29T22:28:09.940Z,1473.53
2018-12-29T22:30:46.743Z,926.13
2018-12-29T22:33:21.677Z,1023.90
2018-12-29T22:35:55.796Z,966.87
2018-12-29T22:38:29.148Z,797.17
2018-12-29T22:41:01.865Z,1104.30
2018-12-29T22:43:33.631Z,1044.10
2018-12-29T22:46:03.749Z,955.40
2018-12-29T22:48:45.699Z,803.30
2018-12-29T22:51:19.927Z,903.07
2018-12-29T22:54:00.788Z,807.00
2018-12-29T22:56:35.106Z,1063.30
2018-12-29T22:59:08.054Z,1468.57
2018-12-29T23:01:38.364Z,960.60
2018-12-29T23:04:13.344Z,1519.40
2018-12-29T23:06:48.800Z,1537.33
2018-12-29T23:09:20.464Z,1246.97
2018-12-29T23:11:57.171Z,905.07
2018-12-29T23:14:29.425Z,1018.97
2018-12-29T23:17:08.593Z,1111.70
2018-12-29T23:19:42.477Z,953.37
2018-12-29T23:22:17.364Z,1196.87
2018-12-29T23:24:49.199Z,1315.80
2018-12-29T23:27:19.486Z,1201.97
2018-12-29T23:29:52.431Z,1088.03
2018-12-29T23:32:22.694Z,946.30
2018-12-29T23:35:03.915Z,1383.57
2018-12-29T23:37:32.060Z,1033.83
2018-12-29T23:40:09.506Z,1206.80
2018-12-29T23:42:45.877Z,977.73
2018-12-29T23:45:18.557Z,882.43
2018-12-29T23:47:53.407Z,584.07
2018-12-29T23:50:23.767Z,807.07
2018-12-29T23:52:56.713Z,967.07
2018-12-29T23:55:33.091Z,731.53
2018-12-29T23:58:05.493Z,840.53
